createdAt,value
2018-11-04T00:02:30.706Z,62.98
2018-11-04T00:05:05.078Z,58.42
2018-11-04T00:07:39.505Z,73.12
2018-11-04T00:10:13.868Z,67.92
2018-11-04T00:12:48.153Z,65.28
2018-11-04T00:15:22.504Z,63.13
2018-11-04T00:17:56.873Z,102.25
2018-11-04T00:20:31.107Z,73.25
2018-11-04T00:23:05.323Z,67.22
2018-11-04T00:25:39.613Z,60.33
2018-11-04T00:28:13.967Z,65.12
2018-11-04T00:30:48.304Z,60.78
2018-11-04T00:33:22.527Z,61.33
2018-11-04T00:35:56.850Z,50.25
2018-11-04T00:38:31.177Z,62.67
2018-11-04T00:41:06.270Z,67.25
2018-11-04T00:43:40.645Z,65.75
2018-11-04T00:46:14.851Z,64.50
2018-11-04T00:48:49.259Z,58.25
2018-11-04T00:51:23.553Z,58.78
2018-11-04T00:53:58.000Z,66.37
2018-11-04T00:56:32.311Z,55.58
2018-11-04T00:59:06.597Z,55.17
2018-11-04T01:01:40.824Z,62.50
2018-11-04T01:04:15.503Z,60.05
2018-11-04T01:06:49.972Z,73.02
2018-11-04T01:09:24.421Z,57.13
2018-11-04T01:11:58.823Z,65.42
2018-11-04T01:14:33.071Z,65.70
2018-11-04T01:17:07.336Z,65.10
2018-11-04T01:19:41.643Z,61.40
2018-11-04T01:22:16.064Z,62.83
2018-11-04T01:24:50.425Z,65.70
2018-11-04T01:27:24.746Z,63.98
2018-11-04T01:29:59.189Z,59.85
2018-11-04T01:32:33.620Z,57.03
2018-11-04T01:35:08.304Z,61.15
2018-11-04T01:37:42.619Z,69.47
2018-11-04T01:40:17.012Z,73.40
2018-11-04T01:42:51.401Z,64.35
2018-11-04T01:45:25.617Z,63.45
2018-11-04T01:47:59.809Z,61.80
2018-11-04T01:50:34.208Z,73.12
2018-11-04T01:53:08.487Z,75.95
2018-11-04T01:55:42.876Z,66.75
2018-11-04T01:58:17.115Z,88.27
2018-11-04T02:00:51.388Z,73.12
2018-11-04T02:03:25.647Z,78.35
2018-11-04T02:06:00.034Z,64.77
2018-11-04T02:08:34.333Z,70.30
2018-11-04T02:11:08.560Z,56.48
2018-11-04T02:13:42.828Z,60.70
2018-11-04T02:16:17.147Z,55.48
2018-11-04T02:18:51.510Z,59.30
2018-11-04T02:21:25.864Z,53.08
2018-11-04T02:24:00.247Z,56.00
2018-11-04T02:26:34.591Z,60.80
2018-11-04T02:29:08.864Z,58.45
2018-11-04T02:31:43.128Z,67.03
2018-11-04T02:34:17.442Z,61.08
2018-11-04T02:36:51.727Z,59.23
2018-11-04T02:39:25.938Z,58.20
2018-11-04T02:42:00.147Z,46.30
2018-11-04T02:44:34.610Z,63.38
2018-11-04T02:47:09.033Z,57.55
2018-11-04T02:49:43.362Z,54.58
2018-11-04T02:52:17.711Z,63.48
2018-11-04T02:54:52.033Z,54.05
2018-11-04T02:57:26.331Z,52.55
2018-11-04T03:00:00.747Z,52.93
2018-11-04T03:02:35.231Z,56.25
2018-11-04T03:05:10.364Z,42.80
2018-11-04T03:07:44.611Z,49.73
2018-11-04T03:10:18.992Z,42.73
2018-11-04T03:12:53.415Z,39.13
2018-11-04T03:15:27.869Z,37.80
2018-11-04T03:18:02.114Z,43.48
2018-11-04T03:20:36.379Z,38.98
2018-11-04T03:23:10.646Z,37.75
2018-11-04T03:25:45.106Z,36.90
2018-11-04T03:28:19.594Z,37.58
2018-11-04T03:30:53.905Z,45.80
2018-11-04T03:33:28.204Z,42.95
2018-11-04T03:36:02.587Z,37.13
2018-11-04T03:38:36.835Z,47.78
2018-11-04T03:41:11.251Z,41.50
2018-11-04T03:43:45.643Z,44.05
2018-11-04T03:46:20.043Z,41.48
2018-11-04T03:48:54.268Z,46.15
2018-11-04T03:51:28.547Z,43.10
2018-11-04T03:54:03.016Z,47.20
2018-11-04T03:56:37.264Z,49.73
2018-11-04T03:59:11.490Z,53.15
2018-11-04T04:01:45.811Z,43.70
2018-11-04T04:04:20.304Z,45.05
2018-11-04T04:06:54.574Z,43.73
2018-11-04T04:09:28.873Z,46.53
2018-11-04T04:12:03.215Z,50.78
2018-11-04T04:14:37.552Z,50.33
2018-11-04T04:17:11.868Z,51.15
2018-11-04T04:19:46.180Z,58.98
2018-11-04T04:22:20.500Z,43.02
2018-11-04T04:24:54.814Z,45.55
2018-11-04T04:27:29.111Z,49.13
2018-11-04T04:30:03.407Z,41.95
2018-11-04T04:32:37.700Z,49.27
2018-11-04T04:35:12.149Z,50.20
2018-11-04T04:37:46.425Z,50.15
2018-11-04T04:40:20.702Z,48.63
2018-11-04T04:42:55.048Z,48.45
2018-11-04T04:45:29.251Z,47.55
2018-11-04T04:48:03.623Z,46.77
2018-11-04T04:50:38.203Z,48.65
2018-11-04T04:53:12.423Z,44.05
2018-11-04T04:55:46.783Z,41.13
2018-11-04T04:58:21.106Z,44.60
2018-11-04T05:00:55.429Z,47.27
2018-11-04T05:03:29.780Z,50.33
2018-11-04T05:06:04.038Z,41.55
2018-11-04T05:08:38.518Z,41.70
2018-11-04T05:11:12.807Z,36.93
2018-11-04T05:13:47.208Z,42.60
2018-11-04T05:16:21.560Z,45.30
2018-11-04T05:18:55.903Z,42.93
2018-11-04T05:21:30.303Z,47.30
2018-11-04T05:24:04.968Z,38.58
2018-11-04T05:26:39.321Z,36.68
2018-11-04T05:29:13.835Z,36.28
2018-11-04T05:31:48.084Z,36.90
2018-11-04T05:34:22.374Z,31.60
2018-11-04T05:36:56.627Z,29.12
2018-11-04T05:39:30.863Z,33.38
2018-11-04T05:42:05.327Z,30.85
2018-11-04T05:44:39.774Z,27.60
2018-11-04T05:47:14.162Z,28.57
2018-11-04T05:49:48.661Z,26.87
2018-11-04T05:52:23.174Z,29.30
2018-11-04T05:54:58.198Z,29.42
2018-11-04T05:57:32.461Z,23.92
2018-11-04T06:00:08.003Z,28.60
2018-11-04T06:02:42.300Z,33.58
2018-11-04T06:05:16.523Z,33.35
2018-11-04T06:07:50.773Z,31.60
2018-11-04T06:10:25.024Z,34.03
2018-11-04T06:12:59.290Z,34.78
2018-11-04T06:15:33.653Z,29.23
2018-11-04T06:18:07.931Z,37.28
2018-11-04T06:20:42.168Z,38.80
2018-11-04T06:23:16.565Z,37.05
2018-11-04T06:25:50.873Z,32.45
2018-11-04T06:28:25.342Z,31.35
2018-11-04T06:30:59.572Z,32.23
2018-11-04T06:33:33.891Z,26.97
2018-11-04T06:36:08.124Z,25.40
2018-11-04T06:38:42.479Z,20.88
2018-11-04T06:41:17.041Z,20.72
2018-11-04T06:43:51.214Z,24.32
2018-11-04T06:46:25.587Z,19.40
2018-11-04T06:48:59.944Z,16.77
2018-11-04T06:51:34.319Z,17.32
2018-11-04T06:54:08.669Z,12.25
2018-11-04T06:56:43.045Z,14.10
2018-11-04T06:59:17.339Z,14.53
2018-11-04T07:01:51.627Z,17.35
2018-11-04T07:04:27.448Z,19.05
2018-11-04T07:07:01.824Z,16.95
2018-11-04T07:09:36.071Z,15.80
2018-11-04T07:12:10.419Z,13.98
2018-11-04T07:14:44.781Z,18.98
2018-11-04T07:17:19.191Z,15.93
2018-11-04T07:19:53.563Z,15.32
2018-11-04T07:22:28.063Z,18.77
2018-11-04T07:25:02.420Z,16.23
2018-11-04T07:27:36.804Z,20.25
2018-11-04T07:30:12.044Z,17.70
2018-11-04T07:32:46.359Z,20.60
2018-11-04T07:35:20.759Z,18.50
2018-11-04T07:37:55.055Z,20.12
2018-11-04T07:40:29.299Z,16.80
2018-11-04T07:43:03.584Z,18.98
2018-11-04T07:45:37.899Z,18.73
2018-11-04T07:48:12.272Z,21.30
2018-11-04T07:50:46.708Z,18.70
2018-11-04T07:53:20.867Z,20.88
2018-11-04T07:55:55.225Z,15.83
2018-11-04T07:58:29.447Z,16.12
2018-11-04T08:01:03.767Z,20.48
2018-11-04T08:03:38.079Z,13.43
2018-11-04T08:06:12.323Z,13.58
2018-11-04T08:08:46.789Z,18.12
2018-11-04T08:11:21.125Z,15.78
2018-11-04T08:13:55.513Z,15.28
2018-11-04T08:16:29.895Z,13.95
2018-11-04T08:19:04.199Z,17.77
2018-11-04T08:21:38.589Z,14.68
2018-11-04T08:24:12.896Z,14.83
2018-11-04T08:26:47.233Z,18.73
2018-11-04T08:29:21.648Z,18.12
2018-11-04T08:31:56.073Z,19.98
2018-11-04T08:34:30.428Z,16.97
2018-11-04T08:37:04.973Z,15.68
2018-11-04T08:39:39.410Z,16.40
2018-11-04T08:42:13.793Z,18.42
2018-11-04T08:44:48.089Z,21.50
2018-11-04T08:47:22.523Z,20.08
2018-11-04T08:49:56.883Z,17.82
2018-11-04T08:52:31.344Z,20.97
2018-11-04T08:55:06.243Z,24.37
2018-11-04T08:57:40.663Z,24.37
2018-11-04T09:00:15.851Z,22.90
2018-11-04T09:02:50.220Z,22.77
2018-11-04T09:05:24.512Z,18.98
2018-11-04T09:07:58.898Z,20.90
2018-11-04T09:10:33.265Z,17.85
2018-11-04T09:13:07.587Z,20.52
2018-11-04T09:15:41.903Z,20.70
2018-11-04T09:18:16.336Z,20.17
2018-11-04T09:20:50.729Z,21.23
2018-11-04T09:23:25.132Z,18.77
2018-11-04T09:25:59.524Z,19.35
2018-11-04T09:28:33.919Z,21.57
2018-11-04T09:31:08.105Z,19.92
2018-11-04T09:33:42.511Z,26.65
2018-11-04T09:36:16.941Z,26.20
2018-11-04T09:38:51.160Z,22.17
2018-11-04T09:41:25.426Z,24.15
2018-11-04T09:43:59.835Z,27.73
2018-11-04T09:46:34.131Z,22.00
2018-11-04T09:49:08.554Z,23.15
2018-11-04T09:51:42.900Z,23.22
2018-11-04T09:54:17.234Z,22.82
2018-11-04T09:56:51.535Z,23.02
2018-11-04T09:59:25.912Z,22.32
2018-11-04T10:02:00.239Z,26.90
2018-11-04T10:04:34.666Z,23.40
2018-11-04T10:07:09.144Z,30.10
2018-11-04T10:09:43.287Z,22.52
2018-11-04T10:12:17.598Z,27.17
2018-11-04T10:14:51.924Z,26.23
2018-11-04T10:17:26.205Z,32.42
2018-11-04T10:20:00.881Z,24.63
2018-11-04T10:22:34.766Z,22.65
2018-11-04T10:25:10.488Z,28.27
2018-11-04T10:27:44.836Z,20.68
2018-11-04T10:30:19.324Z,22.10
2018-11-04T10:32:53.746Z,29.82
2018-11-04T10:35:28.315Z,27.13
2018-11-04T10:38:02.647Z,26.48
2018-11-04T10:40:37.055Z,36.80
2018-11-04T10:43:11.288Z,26.48
2018-11-04T10:45:45.600Z,33.98
2018-11-04T10:48:19.978Z,33.35
2018-11-04T10:50:54.252Z,32.38
2018-11-04T10:53:28.471Z,24.05
2018-11-04T10:56:02.846Z,23.45
2018-11-04T10:58:37.276Z,27.90
2018-11-04T11:01:12.266Z,25.65
2018-11-04T11:03:46.647Z,25.75
2018-11-04T11:06:20.993Z,32.60
2018-11-04T11:08:55.326Z,31.65
2018-11-04T11:11:29.595Z,30.20
2018-11-04T11:14:03.864Z,27.80
2018-11-04T11:16:38.151Z,35.83
2018-11-04T11:19:12.482Z,29.20
2018-11-04T11:21:46.767Z,28.05
2018-11-04T11:24:21.236Z,28.10
2018-11-04T11:26:55.517Z,28.65
2018-11-04T11:29:31.063Z,29.60
2018-11-04T11:32:05.443Z,27.45
2018-11-04T11:34:39.683Z,31.02
2018-11-04T11:37:14.123Z,28.20
2018-11-04T11:39:48.659Z,30.65
2018-11-04T11:42:22.998Z,26.60
2018-11-04T11:44:57.286Z,25.20
2018-11-04T11:47:31.546Z,27.62
2018-11-04T11:50:06.117Z,29.92
2018-11-04T11:52:40.368Z,29.10
2018-11-04T11:55:14.662Z,45.30
2018-11-04T11:57:49.033Z,43.90
2018-11-04T12:00:23.757Z,42.80
2018-11-04T12:02:58.008Z,32.65
2018-11-04T12:05:32.350Z,40.55
2018-11-04T12:08:06.692Z,27.07
2018-11-04T12:10:40.987Z,24.40
2018-11-04T12:13:15.294Z,26.80
2018-11-04T12:15:49.611Z,28.57
2018-11-04T12:18:24.044Z,25.43
2018-11-04T12:20:58.337Z,27.25
2018-11-04T12:23:32.702Z,37.85
2018-11-04T12:26:07.017Z,39.45
2018-11-04T12:28:41.301Z,31.57
2018-11-04T12:31:15.748Z,29.42
2018-11-04T12:33:50.117Z,27.77
2018-11-04T12:36:24.333Z,24.10
2018-11-04T12:38:58.803Z,32.75
2018-11-04T12:41:33.332Z,29.55
2018-11-04T12:44:07.620Z,26.87
2018-11-04T12:46:42.077Z,29.18
2018-11-04T12:49:16.591Z,27.80
2018-11-04T12:51:51.042Z,35.60
2018-11-04T12:54:25.379Z,29.10
2018-11-04T12:56:59.968Z,29.72
2018-11-04T12:59:34.315Z,31.55
2018-11-04T13:02:08.764Z,25.55
2018-11-04T13:04:42.922Z,32.93
2018-11-04T13:07:17.416Z,31.80
2018-11-04T13:09:51.775Z,29.32
2018-11-04T13:12:26.138Z,24.72
2018-11-04T13:15:00.581Z,30.48
2018-11-04T13:17:34.986Z,33.92
2018-11-04T13:20:09.267Z,31.62
2018-11-04T13:22:43.679Z,34.92
2018-11-04T13:25:18.142Z,39.88
2018-11-04T13:27:52.598Z,50.23
2018-11-04T13:30:27.045Z,30.23
2018-11-04T13:33:01.493Z,29.02
2018-11-04T13:35:35.911Z,31.70
2018-11-04T13:38:10.228Z,29.85
2018-11-04T13:40:44.463Z,32.90
2018-11-04T13:43:18.955Z,31.17
2018-11-04T13:45:53.412Z,46.58
2018-11-04T13:48:27.655Z,29.50
2018-11-04T13:51:02.675Z,37.95
2018-11-04T13:53:37.071Z,43.02
2018-11-04T13:56:11.470Z,29.75
2018-11-04T13:58:45.804Z,32.25
2018-11-04T14:01:20.317Z,35.35
2018-11-04T14:03:54.793Z,28.00
2018-11-04T14:06:29.128Z,28.42
2018-11-04T14:09:04.328Z,44.75
2018-11-04T14:11:38.596Z,28.75
2018-11-04T14:14:12.888Z,27.82
2018-11-04T14:16:47.344Z,30.23
2018-11-04T14:19:21.736Z,34.83
2018-11-04T14:21:55.998Z,26.70
2018-11-04T14:24:30.260Z,34.53
2018-11-04T14:27:04.706Z,39.38
2018-11-04T14:29:39.061Z,40.20
2018-11-04T14:32:13.464Z,31.97
2018-11-04T14:34:47.697Z,33.53
2018-11-04T14:37:22.167Z,28.47
2018-11-04T14:39:56.568Z,29.82
2018-11-04T14:42:30.967Z,29.65
2018-11-04T14:45:06.174Z,28.92
2018-11-04T14:47:40.629Z,35.65
2018-11-04T14:50:16.358Z,29.02
2018-11-04T14:52:50.687Z,25.75
2018-11-04T14:55:25.148Z,33.73
2018-11-04T14:57:59.519Z,37.85
2018-11-04T15:00:36.362Z,28.25
2018-11-04T15:03:10.743Z,29.48
2018-11-04T15:05:45.174Z,28.87
2018-11-04T15:08:19.428Z,26.10
2018-11-04T15:10:53.802Z,28.65
2018-11-04T15:13:28.031Z,29.85
2018-11-04T15:16:03.355Z,30.85
2018-11-04T15:18:37.956Z,30.02
2018-11-04T15:21:12.204Z,30.37
2018-11-04T15:23:46.524Z,33.50
2018-11-04T15:26:20.934Z,41.05
2018-11-04T15:28:55.377Z,35.33
2018-11-04T15:31:29.633Z,41.68
2018-11-04T15:34:04.042Z,31.55
2018-11-04T15:36:38.343Z,34.95
2018-11-04T15:39:13.197Z,27.52
2018-11-04T15:41:47.487Z,32.80
2018-11-04T15:44:21.856Z,31.68
2018-11-04T15:46:56.389Z,36.68
2018-11-04T15:49:30.723Z,37.20
2018-11-04T15:52:05.031Z,40.78
2018-11-04T15:54:39.413Z,40.58
2018-11-04T15:57:17.279Z,44.27
2018-11-04T15:59:51.544Z,38.38
2018-11-04T16:02:25.806Z,40.73
2018-11-04T16:05:00.314Z,35.15
2018-11-04T16:07:34.792Z,48.50
2018-11-04T16:10:09.834Z,40.48
2018-11-04T16:12:44.072Z,40.33
2018-11-04T16:15:18.562Z,42.15
2018-11-04T16:17:52.885Z,39.30
2018-11-04T16:20:27.331Z,38.13
2018-11-04T16:23:01.612Z,40.23
2018-11-04T16:25:36.091Z,42.40
2018-11-04T16:28:10.270Z,51.83
2018-11-04T16:30:44.666Z,40.40
2018-11-04T16:33:18.992Z,38.48
2018-11-04T16:35:53.360Z,37.45
2018-11-04T16:38:27.589Z,36.05
2018-11-04T16:41:02.012Z,41.05
2018-11-04T16:43:36.512Z,50.08
2018-11-04T16:46:10.730Z,51.95
2018-11-04T16:48:44.985Z,64.10
2018-11-04T16:51:19.436Z,57.62
2018-11-04T16:53:53.727Z,73.37
2018-11-04T16:56:27.958Z,78.33
2018-11-04T16:59:02.426Z,168.93
2018-11-04T17:01:36.936Z,97.70
2018-11-04T17:04:11.408Z,102.87
2018-11-04T17:06:45.841Z,190.35
2018-11-04T17:09:20.175Z,71.72
2018-11-04T17:11:54.581Z,106.72
2018-11-04T17:14:29.192Z,85.87
2018-11-04T17:17:03.613Z,80.30
2018-11-04T17:19:37.985Z,97.40
2018-11-04T17:22:12.444Z,81.75
2018-11-04T17:24:46.731Z,65.22
2018-11-04T17:27:21.147Z,66.90
2018-11-04T17:29:55.513Z,54.90
2018-11-04T17:32:29.884Z,55.63
2018-11-04T17:35:04.267Z,49.67
2018-11-04T17:37:38.746Z,45.45
2018-11-04T17:40:13.920Z,47.48
2018-11-04T17:42:48.264Z,40.40
2018-11-04T17:45:22.648Z,40.17
2018-11-04T17:47:57.032Z,40.80
2018-11-04T17:50:31.516Z,41.65
2018-11-04T17:53:05.936Z,76.53
2018-11-04T17:55:40.549Z,70.72
2018-11-04T17:58:15.282Z,71.47
2018-11-04T18:00:50.448Z,72.70
2018-11-04T18:03:24.784Z,81.15
2018-11-04T18:05:59.050Z,63.85
2018-11-04T18:08:33.440Z,65.50
2018-11-04T18:11:07.832Z,133.27
2018-11-04T18:13:42.166Z,77.90
2018-11-04T18:16:16.624Z,79.80
2018-11-04T18:18:50.899Z,60.58
2018-11-04T18:21:25.255Z,58.30
2018-11-04T18:23:59.483Z,53.68
2018-11-04T18:26:33.921Z,42.98
2018-11-04T18:29:08.357Z,50.88
2018-11-04T18:31:42.714Z,41.83
2018-11-04T18:34:17.173Z,42.30
2018-11-04T18:36:51.569Z,50.78
2018-11-04T18:39:25.880Z,55.78
2018-11-04T18:42:00.308Z,77.85
2018-11-04T18:44:35.080Z,49.65
2018-11-04T18:47:09.447Z,61.18
2018-11-04T18:49:43.894Z,54.53
2018-11-04T18:52:18.440Z,55.12
2018-11-04T18:54:52.698Z,54.45
2018-11-04T18:57:27.060Z,56.35
2018-11-04T19:00:01.567Z,54.60
2018-11-04T19:02:35.926Z,53.15
2018-11-04T19:05:10.656Z,45.45
2018-11-04T19:07:45.096Z,49.63
2018-11-04T19:10:19.965Z,41.40
2018-11-04T19:12:54.309Z,49.98
2018-11-04T19:15:28.532Z,52.23
2018-11-04T19:18:02.897Z,55.83
2018-11-04T19:20:37.230Z,46.50
2018-11-04T19:23:11.552Z,47.55
2018-11-04T19:25:45.946Z,47.73
2018-11-04T19:28:20.337Z,44.95
2018-11-04T19:30:54.654Z,38.50
2018-11-04T19:33:29.012Z,44.35
2018-11-04T19:36:03.281Z,41.30
2018-11-04T19:38:37.682Z,34.48
2018-11-04T19:41:11.946Z,38.60
2018-11-04T19:43:46.441Z,42.30
2018-11-04T19:46:20.782Z,42.08
2018-11-04T19:48:55.446Z,42.60
2018-11-04T19:51:29.797Z,37.55
2018-11-04T19:54:04.172Z,44.42
2018-11-04T19:56:38.401Z,44.05
2018-11-04T19:59:12.883Z,83.65
2018-11-04T20:01:47.303Z,43.33
2018-11-04T20:04:21.775Z,50.65
2018-11-04T20:06:56.127Z,106.35
2018-11-04T20:09:30.488Z,50.63
2018-11-04T20:12:04.803Z,50.48
2018-11-04T20:14:39.049Z,51.85
2018-11-04T20:17:13.492Z,55.33
2018-11-04T20:19:53.404Z,90.90
2018-11-04T20:22:27.729Z,45.48
2018-11-04T20:25:07.614Z,58.65
2018-11-04T20:27:41.932Z,108.92
2018-11-04T20:30:16.245Z,202.18
2018-11-04T20:32:55.979Z,48.58
2018-11-04T20:35:30.230Z,52.33
2018-11-04T20:38:04.673Z,95.72
2018-11-04T20:40:44.439Z,101.47
2018-11-04T20:43:18.852Z,77.47
2018-11-04T20:45:53.176Z,224.58
2018-11-04T20:48:33.163Z,89.85
2018-11-04T20:51:08.040Z,94.42
2018-11-04T20:53:42.457Z,40.85
2018-11-04T20:56:22.248Z,83.40
2018-11-04T20:58:56.680Z,43.45
2018-11-04T21:01:31.005Z,93.10
2018-11-04T21:04:05.896Z,76.87
2018-11-04T21:06:40.090Z,69.22
2018-11-04T21:09:14.541Z,48.05
2018-11-04T21:11:48.932Z,71.87
2018-11-04T21:14:23.214Z,100.60
2018-11-04T21:16:57.734Z,96.50
2018-11-04T21:19:32.023Z,83.30
2018-11-04T21:22:09.025Z,135.68
2018-11-04T21:24:43.440Z,84.60
2018-11-04T21:27:17.906Z,43.98
2018-11-04T21:29:52.406Z,63.00
2018-11-04T21:32:26.549Z,30.37
2018-11-04T21:35:00.921Z,32.50
2018-11-04T21:37:35.433Z,87.92
2018-11-04T21:40:10.316Z,67.05
2018-11-04T21:42:45.090Z,61.45
2018-11-04T21:45:19.206Z,46.68
2018-11-04T21:47:53.459Z,50.98
2018-11-04T21:50:27.944Z,30.12
2018-11-04T21:53:02.274Z,34.63
2018-11-04T21:55:36.774Z,304.15
2018-11-04T21:58:11.525Z,113.25
2018-11-04T22:00:45.919Z,76.72
2018-11-04T22:03:20.376Z,57.30
2018-11-04T22:05:54.551Z,51.37
2018-11-04T22:08:29.056Z,121.15
2018-11-04T22:11:03.472Z,73.62
2018-11-04T22:13:37.836Z,31.02
2018-11-04T22:16:12.447Z,34.55
2018-11-04T22:18:47.004Z,26.07
2018-11-04T22:21:21.399Z,24.80
2018-11-04T22:23:55.653Z,29.37
2018-11-04T22:26:30.355Z,53.50
2018-11-04T22:29:05.165Z,72.92
2018-11-04T22:31:39.589Z,25.12
2018-11-04T22:34:14.011Z,49.88
2018-11-04T22:36:48.667Z,36.08
2018-11-04T22:39:23.327Z,51.35
2018-11-04T22:41:57.921Z,27.75
2018-11-04T22:44:32.417Z,46.75
2018-11-04T22:47:06.724Z,45.15
2018-11-04T22:49:41.070Z,21.77
2018-11-04T22:52:15.583Z,35.28
2018-11-04T22:54:50.176Z,73.95
2018-11-04T22:57:24.620Z,31.50
2018-11-04T22:59:59.209Z,29.60
2018-11-04T23:02:33.863Z,47.40
2018-11-04T23:05:13.932Z,37.42
2018-11-04T23:07:48.724Z,44.42
2018-11-04T23:10:23.519Z,23.70
2018-11-04T23:12:58.254Z,23.67
2018-11-04T23:15:32.826Z,30.05
2018-11-04T23:18:07.471Z,40.65
2018-11-04T23:20:42.084Z,23.07
2018-11-04T23:23:16.727Z,21.97
2018-11-04T23:25:51.537Z,40.20
2018-11-04T23:28:26.180Z,100.15
2018-11-04T23:31:00.953Z,27.00
2018-11-04T23:33:35.387Z,17.35
2018-11-04T23:36:09.872Z,19.50
2018-11-04T23:38:44.361Z,19.52
2018-11-04T23:41:18.919Z,16.20
2018-11-04T23:43:53.579Z,15.83
2018-11-04T23:46:28.233Z,14.98
2018-11-04T23:49:02.829Z,13.90
2018-11-04T23:51:38.366Z,31.20
2018-11-04T23:54:13.019Z,22.87
2018-11-04T23:56:47.746Z,15.13
2018-11-04T23:59:22.369Z,13.43
